sensor_id;sensor_type;location;lat;lon;timestamp;P1;durP1;ratioP1;P2;durP2;ratioP2
4758;SDS011;2393;50.560;12.636;2022-09-23T00:02:07;3.30;;;0.60;;
4758;SDS011;2393;50.560;12.636;2022-09-23T00:04:36;0.55;;;0.55;;
4758;SDS011;2393;50.560;12.636;2022-09-23T00:07:04;4.22;;;0.80;;
4758;SDS011;2393;50.560;12.636;2022-09-23T00:09:32;1.35;;;0.82;;
4758;SDS011;2393;50.560;12.636;2022-09-23T00:12:00;0.60;;;0.60;;
4758;SDS011;2393;50.560;12.636;2022-09-23T00:14:35;1.20;;;0.68;;
4758;SDS011;2393;50.560;12.636;2022-09-23T00:17:07;0.75;;;0.60;;
4758;SDS011;2393;50.560;12.636;2022-09-23T00:19:47;0.40;;;0.40;;
4758;SDS011;2393;50.560;12.636;2022-09-23T00:22:15;0.70;;;0.70;;
4758;SDS011;2393;50.560;12.636;2022-09-23T00:24:54;0.95;;;0.68;;
4758;SDS011;2393;50.560;12.636;2022-09-23T00:27:22;6.78;;;0.60;;
4758;SDS011;2393;50.560;12.636;2022-09-23T00:29:52;0.80;;;0.77;;
4758;SDS011;2393;50.560;12.636;2022-09-23T00:32:22;0.55;;;0.55;;
4758;SDS011;2393;50.560;12.636;2022-09-23T00:34:50;1.40;;;0.82;;
4758;SDS011;2393;50.560;12.636;2022-09-23T00:37:18;1.58;;;0.50;;
4758;SDS011;2393;50.560;12.636;2022-09-23T00:39:46;0.98;;;0.98;;
4758;SDS011;2393;50.560;12.636;2022-09-23T00:42:18;1.05;;;0.95;;
4758;SDS011;2393;50.560;12.636;2022-09-23T00:44:48;2.25;;;0.93;;
4758;SDS011;2393;50.560;12.636;2022-09-23T00:47:19;0.70;;;0.70;;
4758;SDS011;2393;50.560;12.636;2022-09-23T00:49:55;1.48;;;0.85;;
4758;SDS011;2393;50.560;12.636;2022-09-23T00:52:31;0.60;;;0.60;;
4758;SDS011;2393;50.560;12.636;2022-09-23T00:55:05;1.00;;;0.90;;
4758;SDS011;2393;50.560;12.636;2022-09-23T00:58:00;0.70;;;0.70;;
4758;SDS011;2393;50.560;12.636;2022-09-23T01:01:05;0.85;;;0.85;;
4758;SDS011;2393;50.560;12.636;2022-09-23T01:03:49;0.80;;;0.80;;
4758;SDS011;2393;50.560;12.636;2022-09-23T01:06:56;0.55;;;0.55;;
4758;SDS011;2393;50.560;12.636;2022-09-23T01:09:48;0.50;;;0.50;;
4758;SDS011;2393;50.560;12.636;2022-09-23T01:12:33;0.52;;;0.52;;
4758;SDS011;2393;50.560;12.636;2022-09-23T01:15:34;0.50;;;0.50;;
4758;SDS011;2393;50.560;12.636;2022-09-23T01:18:24;1.30;;;0.60;;
4758;SDS011;2393;50.560;12.636;2022-09-23T01:21:26;0.60;;;0.60;;
4758;SDS011;2393;50.560;12.636;2022-09-23T01:27:40;0.70;;;0.70;;
4758;SDS011;2393;50.560;12.636;2022-09-23T01:30:44;0.50;;;0.50;;
4758;SDS011;2393;50.560;12.636;2022-09-23T01:33:34;0.77;;;0.77;;
4758;SDS011;2393;50.560;12.636;2022-09-23T01:36:21;0.73;;;0.73;;
4758;SDS011;2393;50.560;12.636;2022-09-23T01:39:12;0.98;;;0.90;;
4758;SDS011;2393;50.560;12.636;2022-09-23T01:42:04;0.70;;;0.70;;
4758;SDS011;2393;50.560;12.636;2022-09-23T01:45:00;0.73;;;0.73;;
4758;SDS011;2393;50.560;12.636;2022-09-23T01:48:00;2.22;;;0.68;;
4758;SDS011;2393;50.560;12.636;2022-09-23T01:51:22;0.95;;;0.55;;
4758;SDS011;2393;50.560;12.636;2022-09-23T01:54:51;1.80;;;0.80;;
4758;SDS011;2393;50.560;12.636;2022-09-23T01:57:54;1.45;;;0.80;;
4758;SDS011;2393;50.560;12.636;2022-09-23T02:00:58;1.13;;;1.02;;
4758;SDS011;2393;50.560;12.636;2022-09-23T02:04:08;0.65;;;0.65;;
4758;SDS011;2393;50.560;12.636;2022-09-23T02:07:15;0.70;;;0.60;;
4758;SDS011;2393;50.560;12.636;2022-09-23T02:10:10;0.60;;;0.60;;
4758;SDS011;2393;50.560;12.636;2022-09-23T02:13:12;3.75;;;0.93;;
4758;SDS011;2393;50.560;12.636;2022-09-23T02:15:51;1.27;;;1.17;;
4758;SDS011;2393;50.560;12.636;2022-09-23T02:18:48;1.25;;;0.60;;
4758;SDS011;2393;50.560;12.636;2022-09-23T02:21:35;3.08;;;1.00;;
4758;SDS011;2393;50.560;12.636;2022-09-23T02:24:23;0.82;;;0.57;;
4758;SDS011;2393;50.560;12.636;2022-09-23T02:27:05;0.65;;;0.65;;
4758;SDS011;2393;50.560;12.636;2022-09-23T02:29:50;1.02;;;1.02;;
4758;SDS011;2393;50.560;12.636;2022-09-23T02:32:46;3.83;;;0.90;;
4758;SDS011;2393;50.560;12.636;2022-09-23T02:35:33;0.80;;;0.75;;
4758;SDS011;2393;50.560;12.636;2022-09-23T02:38:22;0.70;;;0.70;;
4758;SDS011;2393;50.560;12.636;2022-09-23T02:40:58;0.90;;;0.90;;
4758;SDS011;2393;50.560;12.636;2022-09-23T02:43:38;2.35;;;0.90;;
4758;SDS011;2393;50.560;12.636;2022-09-23T02:46:15;0.70;;;0.70;;
4758;SDS011;2393;50.560;12.636;2022-09-23T02:48:52;0.77;;;0.77;;
4758;SDS011;2393;50.560;12.636;2022-09-23T02:51:43;1.58;;;0.60;;
4758;SDS011;2393;50.560;12.636;2022-09-23T02:54:18;0.93;;;0.93;;
4758;SDS011;2393;50.560;12.636;2022-09-23T02:56:53;0.77;;;0.77;;
4758;SDS011;2393;50.560;12.636;2022-09-23T02:59:22;3.22;;;1.15;;
4758;SDS011;2393;50.560;12.636;2022-09-23T03:01:55;0.85;;;0.50;;
4758;SDS011;2393;50.560;12.636;2022-09-23T03:04:48;0.80;;;0.80;;
4758;SDS011;2393;50.560;12.636;2022-09-23T03:07:35;1.95;;;0.60;;
4758;SDS011;2393;50.560;12.636;2022-09-23T03:10:14;0.65;;;0.65;;
4758;SDS011;2393;50.560;12.636;2022-09-23T03:12:51;2.25;;;1.17;;
4758;SDS011;2393;50.560;12.636;2022-09-23T03:15:33;1.08;;;0.70;;
4758;SDS011;2393;50.560;12.636;2022-09-23T03:18:07;1.10;;;1.05;;
4758;SDS011;2393;50.560;12.636;2022-09-23T03:20:40;0.70;;;0.70;;
4758;SDS011;2393;50.560;12.636;2022-09-23T03:23:15;1.35;;;0.80;;
4758;SDS011;2393;50.560;12.636;2022-09-23T03:25:50;1.30;;;1.20;;
4758;SDS011;2393;50.560;12.636;2022-09-23T03:28:20;0.80;;;0.80;;
4758;SDS011;2393;50.560;12.636;2022-09-23T03:30:50;0.88;;;0.88;;
4758;SDS011;2393;50.560;12.636;2022-09-23T03:33:21;1.00;;;1.00;;
4758;SDS011;2393;50.560;12.636;2022-09-23T03:35:56;0.70;;;0.63;;
4758;SDS011;2393;50.560;12.636;2022-09-23T03:38:44;6.35;;;0.65;;
4758;SDS011;2393;50.560;12.636;2022-09-23T03:41:23;0.90;;;0.90;;
4758;SDS011;2393;50.560;12.636;2022-09-23T03:43:56;1.90;;;1.00;;
4758;SDS011;2393;50.560;12.636;2022-09-23T03:46:26;1.00;;;1.00;;
4758;SDS011;2393;50.560;12.636;2022-09-23T03:48:55;0.88;;;0.88;;
4758;SDS011;2393;50.560;12.636;2022-09-23T03:51:34;0.90;;;0.90;;
4758;SDS011;2393;50.560;12.636;2022-09-23T03:54:08;0.70;;;0.65;;
4758;SDS011;2393;50.560;12.636;2022-09-23T03:56:40;0.40;;;0.40;;
4758;SDS011;2393;50.560;12.636;2022-09-23T03:59:12;0.98;;;0.90;;
4758;SDS011;2393;50.560;12.636;2022-09-23T04:01:44;2.25;;;0.70;;
4758;SDS011;2393;50.560;12.636;2022-09-23T04:04:12;0.65;;;0.65;;
4758;SDS011;2393;50.560;12.636;2022-09-23T04:06:40;0.60;;;0.60;;
4758;SDS011;2393;50.560;12.636;2022-09-23T04:09:08;1.02;;;0.88;;
4758;SDS011;2393;50.560;12.636;2022-09-23T04:11:36;1.60;;;0.70;;
4758;SDS011;2393;50.560;12.636;2022-09-23T04:14:05;1.45;;;1.33;;
4758;SDS011;2393;50.560;12.636;2022-09-23T04:16:34;1.15;;;1.15;;
4758;SDS011;2393;50.560;12.636;2022-09-23T04:19:02;4.10;;;0.85;;
4758;SDS011;2393;50.560;12.636;2022-09-23T04:21:30;2.15;;;0.60;;
4758;SDS011;2393;50.560;12.636;2022-09-23T04:23:59;0.85;;;0.85;;
4758;SDS011;2393;50.560;12.636;2022-09-23T04:26:28;1.15;;;1.08;;
4758;SDS011;2393;50.560;12.636;2022-09-23T04:28:57;0.90;;;0.85;;
4758;SDS011;2393;50.560;12.636;2022-09-23T04:31:34;0.85;;;0.80;;
4758;SDS011;2393;50.560;12.636;2022-09-23T04:34:02;3.90;;;0.80;;
4758;SDS011;2393;50.560;12.636;2022-09-23T04:36:30;0.60;;;0.60;;
4758;SDS011;2393;50.560;12.636;2022-09-23T04:38:59;1.33;;;1.20;;
4758;SDS011;2393;50.560;12.636;2022-09-23T04:41:27;1.70;;;0.50;;
4758;SDS011;2393;50.560;12.636;2022-09-23T04:43:55;2.00;;;1.08;;
4758;SDS011;2393;50.560;12.636;2022-09-23T04:46:26;0.77;;;0.77;;
4758;SDS011;2393;50.560;12.636;2022-09-23T04:48:56;0.80;;;0.80;;
4758;SDS011;2393;50.560;12.636;2022-09-23T04:51:26;1.13;;;0.70;;
4758;SDS011;2393;50.560;12.636;2022-09-23T04:53:54;1.15;;;1.00;;
4758;SDS011;2393;50.560;12.636;2022-09-23T04:56:24;1.40;;;0.95;;
4758;SDS011;2393;50.560;12.636;2022-09-23T04:58:53;0.90;;;0.90;;
4758;SDS011;2393;50.560;12.636;2022-09-23T05:01:24;1.55;;;1.55;;
4758;SDS011;2393;50.560;12.636;2022-09-23T05:03:56;0.65;;;0.65;;
4758;SDS011;2393;50.560;12.636;2022-09-23T05:06:30;1.88;;;1.17;;
4758;SDS011;2393;50.560;12.636;2022-09-23T05:09:00;0.98;;;0.88;;
4758;SDS011;2393;50.560;12.636;2022-09-23T05:11:30;1.10;;;1.00;;
4758;SDS011;2393;50.560;12.636;2022-09-23T05:14:01;2.33;;;1.27;;
4758;SDS011;2393;50.560;12.636;2022-09-23T05:16:32;0.95;;;0.95;;
4758;SDS011;2393;50.560;12.636;2022-09-23T05:19:02;1.00;;;1.00;;
4758;SDS011;2393;50.560;12.636;2022-09-23T05:21:30;1.25;;;1.25;;
4758;SDS011;2393;50.560;12.636;2022-09-23T05:23:58;1.05;;;0.80;;
4758;SDS011;2393;50.560;12.636;2022-09-23T05:26:28;2.10;;;1.25;;
4758;SDS011;2393;50.560;12.636;2022-09-23T05:28:57;3.92;;;1.70;;
4758;SDS011;2393;50.560;12.636;2022-09-23T05:31:26;0.80;;;0.80;;
4758;SDS011;2393;50.560;12.636;2022-09-23T05:33:56;4.70;;;1.50;;
4758;SDS011;2393;50.560;12.636;2022-09-23T05:36:26;1.17;;;1.17;;
4758;SDS011;2393;50.560;12.636;2022-09-23T05:39:01;0.70;;;0.70;;
4758;SDS011;2393;50.560;12.636;2022-09-23T05:41:29;1.00;;;1.00;;
4758;SDS011;2393;50.560;12.636;2022-09-23T05:43:57;3.37;;;0.80;;
4758;SDS011;2393;50.560;12.636;2022-09-23T05:46:26;0.97;;;0.60;;
4758;SDS011;2393;50.560;12.636;2022-09-23T05:48:55;0.80;;;0.80;;
4758;SDS011;2393;50.560;12.636;2022-09-23T05:51:30;0.73;;;0.73;;
4758;SDS011;2393;50.560;12.636;2022-09-23T05:53:59;0.50;;;0.50;;
4758;SDS011;2393;50.560;12.636;2022-09-23T05:56:30;9.60;;;0.47;;
4758;SDS011;2393;50.560;12.636;2022-09-23T05:59:00;1.60;;;1.50;;
4758;SDS011;2393;50.560;12.636;2022-09-23T06:01:29;5.13;;;2.67;;
4758;SDS011;2393;50.560;12.636;2022-09-23T06:04:00;24.83;;;7.53;;
4758;SDS011;2393;50.560;12.636;2022-09-23T06:06:31;42.20;;;15.07;;
4758;SDS011;2393;50.560;12.636;2022-09-23T06:09:01;61.17;;;21.73;;
4758;SDS011;2393;50.560;12.636;2022-09-23T06:11:29;76.63;;;27.80;;
4758;SDS011;2393;50.560;12.636;2022-09-23T06:13:59;71.80;;;27.57;;
4758;SDS011;2393;50.560;12.636;2022-09-23T06:16:28;86.10;;;25.97;;
4758;SDS011;2393;50.560;12.636;2022-09-23T06:18:57;66.80;;;24.93;;
4758;SDS011;2393;50.560;12.636;2022-09-23T06:21:33;50.23;;;19.20;;
4758;SDS011;2393;50.560;12.636;2022-09-23T06:24:03;47.97;;;18.00;;
4758;SDS011;2393;50.560;12.636;2022-09-23T06:26:33;45.87;;;17.50;;
4758;SDS011;2393;50.560;12.636;2022-09-23T06:29:02;36.57;;;16.30;;
4758;SDS011;2393;50.560;12.636;2022-09-23T06:31:31;30.17;;;11.87;;
4758;SDS011;2393;50.560;12.636;2022-09-23T06:33:59;35.97;;;14.67;;
4758;SDS011;2393;50.560;12.636;2022-09-23T06:36:40;17.00;;;8.20;;
4758;SDS011;2393;50.560;12.636;2022-09-23T06:39:11;18.10;;;8.40;;
4758;SDS011;2393;50.560;12.636;2022-09-23T06:41:40;15.57;;;8.30;;
4758;SDS011;2393;50.560;12.636;2022-09-23T06:44:10;10.93;;;6.73;;
4758;SDS011;2393;50.560;12.636;2022-09-23T06:46:38;10.90;;;7.60;;
4758;SDS011;2393;50.560;12.636;2022-09-23T06:49:06;17.80;;;9.30;;
4758;SDS011;2393;50.560;12.636;2022-09-23T06:51:35;16.60;;;9.33;;
4758;SDS011;2393;50.560;12.636;2022-09-23T06:54:05;17.63;;;9.70;;
4758;SDS011;2393;50.560;12.636;2022-09-23T06:56:36;15.37;;;8.53;;
4758;SDS011;2393;50.560;12.636;2022-09-23T06:59:05;18.37;;;11.00;;
4758;SDS011;2393;50.560;12.636;2022-09-23T07:01:37;18.27;;;11.83;;
4758;SDS011;2393;50.560;12.636;2022-09-23T07:04:05;17.57;;;10.67;;
4758;SDS011;2393;50.560;12.636;2022-09-23T07:06:35;23.17;;;13.63;;
4758;SDS011;2393;50.560;12.636;2022-09-23T07:09:05;23.20;;;11.70;;
4758;SDS011;2393;50.560;12.636;2022-09-23T07:11:35;20.10;;;12.03;;
4758;SDS011;2393;50.560;12.636;2022-09-23T07:14:03;18.23;;;10.00;;
4758;SDS011;2393;50.560;12.636;2022-09-23T07:16:31;24.20;;;11.40;;
4758;SDS011;2393;50.560;12.636;2022-09-23T07:18:59;34.10;;;11.57;;
4758;SDS011;2393;50.560;12.636;2022-09-23T07:21:29;28.03;;;12.80;;
4758;SDS011;2393;50.560;12.636;2022-09-23T07:23:57;29.23;;;12.57;;
4758;SDS011;2393;50.560;12.636;2022-09-23T07:26:27;19.40;;;9.60;;
4758;SDS011;2393;50.560;12.636;2022-09-23T07:29:00;3.00;;;2.40;;
4758;SDS011;2393;50.560;12.636;2022-09-23T07:31:30;1.63;;;1.13;;
4758;SDS011;2393;50.560;12.636;2022-09-23T07:34:05;0.93;;;0.90;;
4758;SDS011;2393;50.560;12.636;2022-09-23T07:36:35;1.27;;;1.10;;
4758;SDS011;2393;50.560;12.636;2022-09-23T07:39:05;1.20;;;1.10;;
4758;SDS011;2393;50.560;12.636;2022-09-23T07:41:36;0.50;;;0.50;;
4758;SDS011;2393;50.560;12.636;2022-09-23T07:44:04;0.70;;;0.70;;
4758;SDS011;2393;50.560;12.636;2022-09-23T07:46:33;1.47;;;0.97;;
4758;SDS011;2393;50.560;12.636;2022-09-23T07:49:03;0.63;;;0.63;;
4758;SDS011;2393;50.560;12.636;2022-09-23T07:51:33;0.70;;;0.70;;
4758;SDS011;2393;50.560;12.636;2022-09-23T07:54:03;1.67;;;0.70;;
4758;SDS011;2393;50.560;12.636;2022-09-23T07:56:32;0.90;;;0.90;;
4758;SDS011;2393;50.560;12.636;2022-09-23T07:59:02;0.77;;;0.67;;
4758;SDS011;2393;50.560;12.636;2022-09-23T08:01:31;3.07;;;0.73;;
4758;SDS011;2393;50.560;12.636;2022-09-23T08:04:02;0.83;;;0.83;;
4758;SDS011;2393;50.560;12.636;2022-09-23T08:06:31;1.30;;;1.13;;
4758;SDS011;2393;50.560;12.636;2022-09-23T08:08:59;2.07;;;0.90;;
4758;SDS011;2393;50.560;12.636;2022-09-23T08:11:28;1.33;;;0.83;;
4758;SDS011;2393;50.560;12.636;2022-09-23T08:13:56;1.23;;;0.53;;
4758;SDS011;2393;50.560;12.636;2022-09-23T08:16:26;0.83;;;0.60;;
4758;SDS011;2393;50.560;12.636;2022-09-23T08:18:54;1.53;;;1.00;;
4758;SDS011;2393;50.560;12.636;2022-09-23T08:21:23;0.80;;;0.80;;
4758;SDS011;2393;50.560;12.636;2022-09-23T08:23:53;0.80;;;0.67;;
4758;SDS011;2393;50.560;12.636;2022-09-23T08:26:21;1.80;;;0.90;;
4758;SDS011;2393;50.560;12.636;2022-09-23T08:28:49;0.53;;;0.53;;
4758;SDS011;2393;50.560;12.636;2022-09-23T08:31:20;0.80;;;0.63;;
4758;SDS011;2393;50.560;12.636;2022-09-23T08:33:53;0.83;;;0.83;;
4758;SDS011;2393;50.560;12.636;2022-09-23T08:36:26;1.33;;;0.70;;
4758;SDS011;2393;50.560;12.636;2022-09-23T08:38:54;0.97;;;0.40;;
4758;SDS011;2393;50.560;12.636;2022-09-23T08:41:24;2.20;;;0.70;;
4758;SDS011;2393;50.560;12.636;2022-09-23T08:44:02;0.70;;;0.70;;
4758;SDS011;2393;50.560;12.636;2022-09-23T08:46:35;0.63;;;0.63;;
4758;SDS011;2393;50.560;12.636;2022-09-23T08:49:08;1.13;;;0.73;;
4758;SDS011;2393;50.560;12.636;2022-09-23T08:51:41;0.70;;;0.70;;
4758;SDS011;2393;50.560;12.636;2022-09-23T08:54:12;2.67;;;0.50;;
4758;SDS011;2393;50.560;12.636;2022-09-23T08:56:42;1.50;;;0.63;;
4758;SDS011;2393;50.560;12.636;2022-09-23T08:59:16;0.60;;;0.60;;
4758;SDS011;2393;50.560;12.636;2022-09-23T09:01:52;1.53;;;0.60;;
4758;SDS011;2393;50.560;12.636;2022-09-23T09:04:26;1.20;;;0.53;;
4758;SDS011;2393;50.560;12.636;2022-09-23T09:07:01;0.60;;;0.60;;
4758;SDS011;2393;50.560;12.636;2022-09-23T09:10:02;0.87;;;0.73;;
4758;SDS011;2393;50.560;12.636;2022-09-23T09:12:36;1.90;;;0.70;;
4758;SDS011;2393;50.560;12.636;2022-09-23T09:15:10;0.60;;;0.60;;
4758;SDS011;2393;50.560;12.636;2022-09-23T09:17:43;0.63;;;0.60;;
4758;SDS011;2393;50.560;12.636;2022-09-23T09:20:21;1.13;;;0.53;;
4758;SDS011;2393;50.560;12.636;2022-09-23T09:22:52;1.30;;;0.60;;
4758;SDS011;2393;50.560;12.636;2022-09-23T09:28:11;0.60;;;0.60;;
4758;SDS011;2393;50.560;12.636;2022-09-23T09:30:42;0.87;;;0.70;;
4758;SDS011;2393;50.560;12.636;2022-09-23T09:33:14;0.93;;;0.93;;
4758;SDS011;2393;50.560;12.636;2022-09-23T09:35:53;1.70;;;0.57;;
4758;SDS011;2393;50.560;12.636;2022-09-23T09:38:34;1.53;;;0.80;;
4758;SDS011;2393;50.560;12.636;2022-09-23T09:41:08;0.40;;;0.40;;
4758;SDS011;2393;50.560;12.636;2022-09-23T09:43:40;0.40;;;0.30;;
4758;SDS011;2393;50.560;12.636;2022-09-23T09:46:15;1.07;;;0.50;;
4758;SDS011;2393;50.560;12.636;2022-09-23T09:48:55;0.40;;;0.40;;
4758;SDS011;2393;50.560;12.636;2022-09-23T09:51:28;0.70;;;0.60;;
4758;SDS011;2393;50.560;12.636;2022-09-23T09:56:42;1.00;;;0.60;;
4758;SDS011;2393;50.560;12.636;2022-09-23T09:59:14;2.20;;;0.80;;
4758;SDS011;2393;50.560;12.636;2022-09-23T10:01:48;0.40;;;0.37;;
4758;SDS011;2393;50.560;12.636;2022-09-23T10:04:19;1.53;;;0.80;;
4758;SDS011;2393;50.560;12.636;2022-09-23T10:07:04;0.50;;;0.50;;
4758;SDS011;2393;50.560;12.636;2022-09-23T10:09:38;2.00;;;0.47;;
4758;SDS011;2393;50.560;12.636;2022-09-23T10:12:14;1.13;;;0.70;;
4758;SDS011;2393;50.560;12.636;2022-09-23T10:14:44;0.70;;;0.50;;
4758;SDS011;2393;50.560;12.636;2022-09-23T10:17:17;1.33;;;0.57;;
4758;SDS011;2393;50.560;12.636;2022-09-23T10:19:47;0.83;;;0.83;;
4758;SDS011;2393;50.560;12.636;2022-09-23T10:22:20;1.00;;;0.60;;
4758;SDS011;2393;50.560;12.636;2022-09-23T10:24:51;0.70;;;0.70;;
4758;SDS011;2393;50.560;12.636;2022-09-23T10:27:27;0.50;;;0.50;;
4758;SDS011;2393;50.560;12.636;2022-09-23T10:29:58;0.40;;;0.40;;
4758;SDS011;2393;50.560;12.636;2022-09-23T10:32:29;0.57;;;0.57;;
4758;SDS011;2393;50.560;12.636;2022-09-23T10:35:10;1.40;;;1.30;;
4758;SDS011;2393;50.560;12.636;2022-09-23T10:37:43;0.83;;;0.50;;
4758;SDS011;2393;50.560;12.636;2022-09-23T10:40:15;0.67;;;0.50;;
4758;SDS011;2393;50.560;12.636;2022-09-23T10:43:15;0.50;;;0.50;;
4758;SDS011;2393;50.560;12.636;2022-09-23T10:46:15;0.40;;;0.33;;
4758;SDS011;2393;50.560;12.636;2022-09-23T10:52:04;0.93;;;0.60;;
4758;SDS011;2393;50.560;12.636;2022-09-23T10:54:49;0.60;;;0.60;;
4758;SDS011;2393;50.560;12.636;2022-09-23T10:57:30;0.53;;;0.53;;
4758;SDS011;2393;50.560;12.636;2022-09-23T11:00:10;0.60;;;0.60;;
4758;SDS011;2393;50.560;12.636;2022-09-23T11:03:00;1.17;;;0.40;;
4758;SDS011;2393;50.560;12.636;2022-09-23T11:05:43;0.70;;;0.40;;
4758;SDS011;2393;50.560;12.636;2022-09-23T11:08:24;0.77;;;0.50;;
4758;SDS011;2393;50.560;12.636;2022-09-23T11:11:13;0.60;;;0.60;;
4758;SDS011;2393;50.560;12.636;2022-09-23T11:14:00;0.57;;;0.57;;
4758;SDS011;2393;50.560;12.636;2022-09-23T11:16:46;0.53;;;0.50;;
4758;SDS011;2393;50.560;12.636;2022-09-23T11:19:41;0.40;;;0.40;;
4758;SDS011;2393;50.560;12.636;2022-09-23T11:22:47;0.63;;;0.63;;
4758;SDS011;2393;50.560;12.636;2022-09-23T11:25:27;1.27;;;0.47;;
4758;SDS011;2393;50.560;12.636;2022-09-23T11:31:13;0.43;;;0.43;;
4758;SDS011;2393;50.560;12.636;2022-09-23T11:33:59;0.60;;;0.60;;
4758;SDS011;2393;50.560;12.636;2022-09-23T11:36:45;0.63;;;0.63;;
4758;SDS011;2393;50.560;12.636;2022-09-23T11:39:22;0.60;;;0.50;;
4758;SDS011;2393;50.560;12.636;2022-09-23T11:42:00;0.80;;;0.60;;
4758;SDS011;2393;50.560;12.636;2022-09-23T11:44:48;0.60;;;0.60;;
4758;SDS011;2393;50.560;12.636;2022-09-23T11:47:27;1.83;;;0.60;;
4758;SDS011;2393;50.560;12.636;2022-09-23T11:50:08;0.40;;;0.40;;
4758;SDS011;2393;50.560;12.636;2022-09-23T11:53:26;0.90;;;0.53;;
4758;SDS011;2393;50.560;12.636;2022-09-23T11:55:52;0.40;;;0.40;;
4758;SDS011;2393;50.560;12.636;2022-09-23T11:58:40;0.70;;;0.70;;
4758;SDS011;2393;50.560;12.636;2022-09-23T12:01:22;1.93;;;0.60;;
4758;SDS011;2393;50.560;12.636;2022-09-23T12:04:05;0.50;;;0.50;;
4758;SDS011;2393;50.560;12.636;2022-09-23T12:07:08;0.93;;;0.50;;
4758;SDS011;2393;50.560;12.636;2022-09-23T12:11:31;0.77;;;0.77;;
4758;SDS011;2393;50.560;12.636;2022-09-23T12:15:43;1.20;;;1.03;;
4758;SDS011;2393;50.560;12.636;2022-09-23T12:18:55;1.23;;;1.13;;
4758;SDS011;2393;50.560;12.636;2022-09-23T12:23:33;1.13;;;0.80;;
4758;SDS011;2393;50.560;12.636;2022-09-23T12:29:22;0.40;;;0.40;;
4758;SDS011;2393;50.560;12.636;2022-09-23T12:32:04;0.53;;;0.53;;
4758;SDS011;2393;50.560;12.636;2022-09-23T12:42:44;1.47;;;0.90;;
4758;SDS011;2393;50.560;12.636;2022-09-23T12:52:11;0.73;;;0.47;;
4758;SDS011;2393;50.560;12.636;2022-09-23T13:01:15;3.43;;;1.57;;
4758;SDS011;2393;50.560;12.636;2022-09-23T13:03:53;1.00;;;1.00;;
4758;SDS011;2393;50.560;12.636;2022-09-23T13:07:04;1.93;;;1.60;;
4758;SDS011;2393;50.560;12.636;2022-09-23T13:10:37;1.63;;;1.57;;
4758;SDS011;2393;50.560;12.636;2022-09-23T13:18:06;1.50;;;1.40;;
4758;SDS011;2393;50.560;12.636;2022-09-23T13:27:26;0.80;;;0.63;;
4758;SDS011;2393;50.560;12.636;2022-09-23T13:30:39;2.10;;;0.93;;
4758;SDS011;2393;50.560;12.636;2022-09-23T13:37:10;0.60;;;0.60;;
4758;SDS011;2393;50.560;12.636;2022-09-23T13:44:02;1.10;;;0.80;;
4758;SDS011;2393;50.560;12.636;2022-09-23T13:52:19;3.07;;;1.40;;
4758;SDS011;2393;50.560;12.636;2022-09-23T13:55:37;2.63;;;0.80;;
4758;SDS011;2393;50.560;12.636;2022-09-23T14:06:50;1.63;;;0.90;;
4758;SDS011;2393;50.560;12.636;2022-09-23T14:21:50;0.80;;;0.80;;
4758;SDS011;2393;50.560;12.636;2022-09-23T14:24:41;0.50;;;0.50;;
4758;SDS011;2393;50.560;12.636;2022-09-23T14:27:33;0.67;;;0.40;;
4758;SDS011;2393;50.560;12.636;2022-09-23T14:30:18;0.60;;;0.60;;
4758;SDS011;2393;50.560;12.636;2022-09-23T14:35:49;0.80;;;0.80;;
4758;SDS011;2393;50.560;12.636;2022-09-23T14:38:34;0.83;;;0.50;;
4758;SDS011;2393;50.560;12.636;2022-09-23T14:44:04;0.60;;;0.50;;
4758;SDS011;2393;50.560;12.636;2022-09-23T14:46:34;1.10;;;0.50;;
4758;SDS011;2393;50.560;12.636;2022-09-23T14:50:31;1.33;;;0.67;;
4758;SDS011;2393;50.560;12.636;2022-09-23T14:57:58;0.53;;;0.53;;
4758;SDS011;2393;50.560;12.636;2022-09-23T15:00:58;0.90;;;0.83;;
4758;SDS011;2393;50.560;12.636;2022-09-23T15:07:26;0.50;;;0.50;;
4758;SDS011;2393;50.560;12.636;2022-09-23T15:10:14;0.60;;;0.60;;
4758;SDS011;2393;50.560;12.636;2022-09-23T15:13:22;0.63;;;0.63;;
4758;SDS011;2393;50.560;12.636;2022-09-23T15:16:26;0.50;;;0.50;;
4758;SDS011;2393;50.560;12.636;2022-09-23T15:19:27;1.00;;;1.00;;
4758;SDS011;2393;50.560;12.636;2022-09-23T15:22:00;1.17;;;0.87;;
4758;SDS011;2393;50.560;12.636;2022-09-23T15:24:54;0.67;;;0.67;;
4758;SDS011;2393;50.560;12.636;2022-09-23T15:27:56;0.67;;;0.67;;
4758;SDS011;2393;50.560;12.636;2022-09-23T15:30:36;0.50;;;0.50;;
4758;SDS011;2393;50.560;12.636;2022-09-23T15:33:27;0.53;;;0.53;;
4758;SDS011;2393;50.560;12.636;2022-09-23T15:36:04;0.63;;;0.63;;
4758;SDS011;2393;50.560;12.636;2022-09-23T15:38:54;0.60;;;0.60;;
4758;SDS011;2393;50.560;12.636;2022-09-23T15:41:32;1.90;;;0.70;;
4758;SDS011;2393;50.560;12.636;2022-09-23T15:44:10;0.87;;;0.70;;
4758;SDS011;2393;50.560;12.636;2022-09-23T15:47:08;0.77;;;0.67;;
4758;SDS011;2393;50.560;12.636;2022-09-23T15:49:53;0.60;;;0.50;;
4758;SDS011;2393;50.560;12.636;2022-09-23T15:52:32;4.57;;;0.70;;
4758;SDS011;2393;50.560;12.636;2022-09-23T15:55:12;1.80;;;0.47;;
4758;SDS011;2393;50.560;12.636;2022-09-23T15:57:56;1.33;;;0.50;;
4758;SDS011;2393;50.560;12.636;2022-09-23T16:00:36;0.93;;;0.83;;
4758;SDS011;2393;50.560;12.636;2022-09-23T16:03:28;0.77;;;0.60;;
4758;SDS011;2393;50.560;12.636;2022-09-23T16:05:59;0.97;;;0.97;;
4758;SDS011;2393;50.560;12.636;2022-09-23T16:08:31;5.33;;;1.30;;
4758;SDS011;2393;50.560;12.636;2022-09-23T16:11:00;1.00;;;0.87;;
4758;SDS011;2393;50.560;12.636;2022-09-23T16:13:37;1.03;;;0.77;;
4758;SDS011;2393;50.560;12.636;2022-09-23T16:16:20;1.57;;;0.87;;
4758;SDS011;2393;50.560;12.636;2022-09-23T16:19:11;0.80;;;0.70;;
4758;SDS011;2393;50.560;12.636;2022-09-23T16:21:43;0.70;;;0.70;;
4758;SDS011;2393;50.560;12.636;2022-09-23T16:24:52;2.50;;;0.67;;
4758;SDS011;2393;50.560;12.636;2022-09-23T16:27:33;1.03;;;0.97;;
4758;SDS011;2393;50.560;12.636;2022-09-23T16:32:51;0.93;;;0.87;;
4758;SDS011;2393;50.560;12.636;2022-09-23T16:35:21;0.67;;;0.67;;
4758;SDS011;2393;50.560;12.636;2022-09-23T16:37:57;1.10;;;1.00;;
4758;SDS011;2393;50.560;12.636;2022-09-23T16:40:46;3.70;;;1.63;;
4758;SDS011;2393;50.560;12.636;2022-09-23T16:43:15;1.30;;;1.20;;
4758;SDS011;2393;50.560;12.636;2022-09-23T16:45:45;1.03;;;1.03;;
4758;SDS011;2393;50.560;12.636;2022-09-23T16:48:19;0.80;;;0.80;;
4758;SDS011;2393;50.560;12.636;2022-09-23T16:50:57;1.10;;;1.10;;
4758;SDS011;2393;50.560;12.636;2022-09-23T16:53:32;1.37;;;1.37;;
4758;SDS011;2393;50.560;12.636;2022-09-23T16:56:03;1.43;;;1.43;;
4758;SDS011;2393;50.560;12.636;2022-09-23T16:58:36;1.70;;;1.60;;
4758;SDS011;2393;50.560;12.636;2022-09-23T17:01:27;1.70;;;1.60;;
4758;SDS011;2393;50.560;12.636;2022-09-23T17:04:19;2.40;;;1.50;;
4758;SDS011;2393;50.560;12.636;2022-09-23T17:07:05;6.23;;;3.37;;
4758;SDS011;2393;50.560;12.636;2022-09-23T17:09:43;4.00;;;2.33;;
4758;SDS011;2393;50.560;12.636;2022-09-23T17:12:12;4.97;;;2.67;;
4758;SDS011;2393;50.560;12.636;2022-09-23T17:14:46;24.20;;;7.53;;
4758;SDS011;2393;50.560;12.636;2022-09-23T17:17:14;5.87;;;3.50;;
4758;SDS011;2393;50.560;12.636;2022-09-23T17:19:42;3.60;;;2.00;;
4758;SDS011;2393;50.560;12.636;2022-09-23T17:22:14;3.13;;;1.87;;
4758;SDS011;2393;50.560;12.636;2022-09-23T17:24:42;3.77;;;3.20;;
4758;SDS011;2393;50.560;12.636;2022-09-23T17:27:10;10.43;;;5.90;;
4758;SDS011;2393;50.560;12.636;2022-09-23T17:29:38;37.00;;;15.00;;
4758;SDS011;2393;50.560;12.636;2022-09-23T17:32:06;10.87;;;6.27;;
4758;SDS011;2393;50.560;12.636;2022-09-23T17:34:36;7.13;;;4.47;;
4758;SDS011;2393;50.560;12.636;2022-09-23T17:37:05;7.73;;;3.97;;
4758;SDS011;2393;50.560;12.636;2022-09-23T17:39:44;4.07;;;3.47;;
4758;SDS011;2393;50.560;12.636;2022-09-23T17:42:13;3.90;;;3.10;;
4758;SDS011;2393;50.560;12.636;2022-09-23T17:44:50;4.90;;;3.03;;
4758;SDS011;2393;50.560;12.636;2022-09-23T17:47:26;4.07;;;3.67;;
4758;SDS011;2393;50.560;12.636;2022-09-23T17:49:58;9.83;;;3.03;;
4758;SDS011;2393;50.560;12.636;2022-09-23T17:52:31;3.90;;;3.60;;
4758;SDS011;2393;50.560;12.636;2022-09-23T17:54:59;8.83;;;4.70;;